sensor_id;sensor_type;location;lat;lon;timestamp;P1;durP1;ratioP1;P2;durP2;ratioP2
21591;SDS011;10958;50.892;3.992;2023-05-10T00:01:50;16.27;;;7.40;;
21591;SDS011;10958;50.892;3.992;2023-05-10T00:04:19;14.77;;;6.95;;
21591;SDS011;10958;50.892;3.992;2023-05-10T00:09:21;16.05;;;7.13;;
21591;SDS011;10958;50.892;3.992;2023-05-10T00:11:47;12.77;;;7.35;;
21591;SDS011;10958;50.892;3.992;2023-05-10T00:14:13;15.95;;;7.75;;
21591;SDS011;10958;50.892;3.992;2023-05-10T00:38:44;16.55;;;9.40;;
21591;SDS011;10958;50.892;3.992;2023-05-10T00:41:11;16.85;;;9.50;;
21591;SDS011;10958;50.892;3.992;2023-05-10T00:43:36;17.88;;;10.40;;
21591;SDS011;10958;50.892;3.992;2023-05-10T00:46:02;17.60;;;10.25;;
21591;SDS011;10958;50.892;3.992;2023-05-10T00:48:29;18.77;;;10.90;;
21591;SDS011;10958;50.892;3.992;2023-05-10T00:50:55;18.40;;;10.57;;
21591;SDS011;10958;50.892;3.992;2023-05-10T00:53:22;17.98;;;11.25;;
21591;SDS011;10958;50.892;3.992;2023-05-10T00:55:51;21.92;;;11.98;;
21591;SDS011;10958;50.892;3.992;2023-05-10T00:58:17;21.67;;;12.10;;
21591;SDS011;10958;50.892;3.992;2023-05-10T01:00:43;19.60;;;13.00;;
21591;SDS011;10958;50.892;3.992;2023-05-10T01:03:11;24.95;;;12.23;;
21591;SDS011;10958;50.892;3.992;2023-05-10T01:05:37;24.27;;;12.55;;
21591;SDS011;10958;50.892;3.992;2023-05-10T01:08:03;22.40;;;12.93;;
21591;SDS011;10958;50.892;3.992;2023-05-10T01:10:29;23.42;;;12.30;;
21591;SDS011;10958;50.892;3.992;2023-05-10T01:12:56;22.58;;;13.52;;
21591;SDS011;10958;50.892;3.992;2023-05-10T01:15:24;20.05;;;13.15;;
21591;SDS011;10958;50.892;3.992;2023-05-10T01:17:50;23.05;;;13.43;;
21591;SDS011;10958;50.892;3.992;2023-05-10T01:20:17;23.17;;;13.40;;
21591;SDS011;10958;50.892;3.992;2023-05-10T01:34:12;23.80;;;13.15;;
21591;SDS011;10958;50.892;3.992;2023-05-10T01:36:48;24.05;;;13.60;;
21591;SDS011;10958;50.892;3.992;2023-05-10T01:39:35;27.17;;;13.43;;
21591;SDS011;10958;50.892;3.992;2023-05-10T01:42:16;20.38;;;12.00;;
21591;SDS011;10958;50.892;3.992;2023-05-10T01:44:49;24.67;;;14.32;;
21591;SDS011;10958;50.892;3.992;2023-05-10T01:47:25;25.20;;;14.00;;
21591;SDS011;10958;50.892;3.992;2023-05-10T01:49:55;25.33;;;13.63;;
21591;SDS011;10958;50.892;3.992;2023-05-10T01:52:36;27.13;;;14.27;;
21591;SDS011;10958;50.892;3.992;2023-05-10T01:55:06;25.60;;;13.68;;
21591;SDS011;10958;50.892;3.992;2023-05-10T01:57:40;24.67;;;13.57;;
21591;SDS011;10958;50.892;3.992;2023-05-10T02:00:09;23.02;;;13.40;;
21591;SDS011;10958;50.892;3.992;2023-05-10T02:02:37;24.65;;;13.75;;
21591;SDS011;10958;50.892;3.992;2023-05-10T02:05:05;23.30;;;13.43;;
21591;SDS011;10958;50.892;3.992;2023-05-10T02:07:33;27.23;;;14.10;;
21591;SDS011;10958;50.892;3.992;2023-05-10T02:10:01;24.10;;;12.98;;
21591;SDS011;10958;50.892;3.992;2023-05-10T02:12:29;23.70;;;12.93;;
21591;SDS011;10958;50.892;3.992;2023-05-10T02:14:57;22.25;;;12.55;;
21591;SDS011;10958;50.892;3.992;2023-05-10T02:17:26;22.25;;;12.85;;
21591;SDS011;10958;50.892;3.992;2023-05-10T02:19:54;21.42;;;11.73;;
21591;SDS011;10958;50.892;3.992;2023-05-10T02:22:21;26.42;;;12.57;;
21591;SDS011;10958;50.892;3.992;2023-05-10T02:24:48;22.65;;;12.48;;
21591;SDS011;10958;50.892;3.992;2023-05-10T02:27:15;25.15;;;12.40;;
21591;SDS011;10958;50.892;3.992;2023-05-10T02:29:43;21.98;;;13.05;;
21591;SDS011;10958;50.892;3.992;2023-05-10T02:32:10;19.10;;;12.30;;
21591;SDS011;10958;50.892;3.992;2023-05-10T02:34:37;23.40;;;12.45;;
21591;SDS011;10958;50.892;3.992;2023-05-10T02:37:03;19.13;;;12.27;;
21591;SDS011;10958;50.892;3.992;2023-05-10T02:39:31;19.75;;;12.57;;
21591;SDS011;10958;50.892;3.992;2023-05-10T02:41:57;24.23;;;12.10;;
21591;SDS011;10958;50.892;3.992;2023-05-10T02:44:23;23.55;;;12.85;;
21591;SDS011;10958;50.892;3.992;2023-05-10T02:46:52;19.92;;;11.70;;
21591;SDS011;10958;50.892;3.992;2023-05-10T02:49:21;22.52;;;12.68;;
21591;SDS011;10958;50.892;3.992;2023-05-10T02:51:47;22.15;;;12.50;;
21591;SDS011;10958;50.892;3.992;2023-05-10T02:54:20;22.15;;;13.75;;
21591;SDS011;10958;50.892;3.992;2023-05-10T02:56:55;24.10;;;14.45;;
21591;SDS011;10958;50.892;3.992;2023-05-10T02:59:24;23.35;;;14.10;;
21591;SDS011;10958;50.892;3.992;2023-05-10T03:01:50;23.23;;;14.25;;
21591;SDS011;10958;50.892;3.992;2023-05-10T03:04:16;24.52;;;14.77;;
21591;SDS011;10958;50.892;3.992;2023-05-10T03:06:44;24.95;;;14.20;;
21591;SDS011;10958;50.892;3.992;2023-05-10T03:09:10;26.15;;;15.60;;
21591;SDS011;10958;50.892;3.992;2023-05-10T03:14:40;23.08;;;15.15;;
21591;SDS011;10958;50.892;3.992;2023-05-10T03:20:11;25.98;;;15.02;;
21591;SDS011;10958;50.892;3.992;2023-05-10T03:22:44;25.05;;;14.70;;
21591;SDS011;10958;50.892;3.992;2023-05-10T03:25:12;22.17;;;15.10;;
21591;SDS011;10958;50.892;3.992;2023-05-10T03:27:41;26.80;;;15.20;;
21591;SDS011;10958;50.892;3.992;2023-05-10T03:30:10;26.92;;;15.27;;
21591;SDS011;10958;50.892;3.992;2023-05-10T03:32:37;22.77;;;15.20;;
21591;SDS011;10958;50.892;3.992;2023-05-10T03:35:06;26.20;;;15.85;;
21591;SDS011;10958;50.892;3.992;2023-05-10T03:37:36;27.20;;;15.85;;
21591;SDS011;10958;50.892;3.992;2023-05-10T03:40:02;24.17;;;15.57;;
21591;SDS011;10958;50.892;3.992;2023-05-10T03:42:28;27.17;;;17.13;;
21591;SDS011;10958;50.892;3.992;2023-05-10T03:44:56;29.10;;;16.20;;
21591;SDS011;10958;50.892;3.992;2023-05-10T03:47:22;26.77;;;16.70;;
21591;SDS011;10958;50.892;3.992;2023-05-10T03:49:48;26.85;;;16.00;;
21591;SDS011;10958;50.892;3.992;2023-05-10T03:52:14;27.27;;;15.52;;
21591;SDS011;10958;50.892;3.992;2023-05-10T03:54:40;23.77;;;15.07;;
21591;SDS011;10958;50.892;3.992;2023-05-10T03:57:05;27.02;;;16.08;;
21591;SDS011;10958;50.892;3.992;2023-05-10T03:59:31;24.55;;;14.98;;
21591;SDS011;10958;50.892;3.992;2023-05-10T04:01:59;23.05;;;14.48;;
21591;SDS011;10958;50.892;3.992;2023-05-10T04:04:28;18.90;;;10.70;;
21591;SDS011;10958;50.892;3.992;2023-05-10T04:06:53;24.40;;;14.32;;
21591;SDS011;10958;50.892;3.992;2023-05-10T04:09:19;24.60;;;13.48;;
21591;SDS011;10958;50.892;3.992;2023-05-10T04:11:45;26.10;;;14.02;;
21591;SDS011;10958;50.892;3.992;2023-05-10T04:14:11;24.80;;;14.30;;
21591;SDS011;10958;50.892;3.992;2023-05-10T04:16:37;25.45;;;13.95;;
21591;SDS011;10958;50.892;3.992;2023-05-10T04:19:03;23.75;;;14.15;;
21591;SDS011;10958;50.892;3.992;2023-05-10T04:21:29;26.73;;;14.15;;
21591;SDS011;10958;50.892;3.992;2023-05-10T04:23:55;26.05;;;13.98;;
21591;SDS011;10958;50.892;3.992;2023-05-10T04:26:21;24.80;;;14.93;;
21591;SDS011;10958;50.892;3.992;2023-05-10T04:28:47;23.45;;;14.27;;
21591;SDS011;10958;50.892;3.992;2023-05-10T04:33:42;25.80;;;13.98;;
21591;SDS011;10958;50.892;3.992;2023-05-10T04:36:10;33.35;;;15.35;;
21591;SDS011;10958;50.892;3.992;2023-05-10T04:38:35;28.75;;;14.77;;
21591;SDS011;10958;50.892;3.992;2023-05-10T04:41:05;31.42;;;15.00;;
21591;SDS011;10958;50.892;3.992;2023-05-10T04:43:34;28.00;;;15.43;;
21591;SDS011;10958;50.892;3.992;2023-05-10T04:46:01;32.95;;;14.90;;
21591;SDS011;10958;50.892;3.992;2023-05-10T04:48:27;29.30;;;15.13;;
21591;SDS011;10958;50.892;3.992;2023-05-10T04:50:53;30.33;;;14.60;;
21591;SDS011;10958;50.892;3.992;2023-05-10T04:53:18;29.40;;;16.15;;
21591;SDS011;10958;50.892;3.992;2023-05-10T04:55:46;29.60;;;15.90;;
21591;SDS011;10958;50.892;3.992;2023-05-10T04:58:15;31.40;;;15.30;;
21591;SDS011;10958;50.892;3.992;2023-05-10T05:00:41;26.83;;;15.47;;
21591;SDS011;10958;50.892;3.992;2023-05-10T05:03:09;28.65;;;15.27;;
21591;SDS011;10958;50.892;3.992;2023-05-10T05:05:37;33.22;;;16.95;;
21591;SDS011;10958;50.892;3.992;2023-05-10T05:08:03;29.92;;;16.65;;
21591;SDS011;10958;50.892;3.992;2023-05-10T05:10:29;34.67;;;17.20;;
21591;SDS011;10958;50.892;3.992;2023-05-10T05:12:55;39.20;;;17.35;;
21591;SDS011;10958;50.892;3.992;2023-05-10T05:15:20;33.20;;;17.50;;
21591;SDS011;10958;50.892;3.992;2023-05-10T05:17:46;29.27;;;16.13;;
21591;SDS011;10958;50.892;3.992;2023-05-10T05:20:12;33.80;;;18.52;;
21591;SDS011;10958;50.892;3.992;2023-05-10T05:22:38;34.15;;;16.92;;
21591;SDS011;10958;50.892;3.992;2023-05-10T05:25:04;33.92;;;18.35;;
21591;SDS011;10958;50.892;3.992;2023-05-10T05:27:31;36.88;;;17.77;;
21591;SDS011;10958;50.892;3.992;2023-05-10T05:29:57;35.80;;;17.85;;
21591;SDS011;10958;50.892;3.992;2023-05-10T05:32:25;32.47;;;17.97;;
21591;SDS011;10958;50.892;3.992;2023-05-10T05:34:51;37.97;;;18.77;;
21591;SDS011;10958;50.892;3.992;2023-05-10T05:37:17;33.53;;;18.63;;
21591;SDS011;10958;50.892;3.992;2023-05-10T05:39:44;35.05;;;18.27;;
21591;SDS011;10958;50.892;3.992;2023-05-10T05:42:11;38.65;;;20.75;;
21591;SDS011;10958;50.892;3.992;2023-05-10T05:44:41;36.85;;;18.95;;
21591;SDS011;10958;50.892;3.992;2023-05-10T05:47:07;40.17;;;20.73;;
21591;SDS011;10958;50.892;3.992;2023-05-10T05:49:32;33.83;;;19.30;;
21591;SDS011;10958;50.892;3.992;2023-05-10T05:52:02;35.17;;;19.00;;
21591;SDS011;10958;50.892;3.992;2023-05-10T05:54:29;33.50;;;18.75;;
21591;SDS011;10958;50.892;3.992;2023-05-10T05:56:59;37.45;;;19.73;;
21591;SDS011;10958;50.892;3.992;2023-05-10T05:59:25;40.63;;;21.27;;
21591;SDS011;10958;50.892;3.992;2023-05-10T06:01:52;38.88;;;19.45;;
21591;SDS011;10958;50.892;3.992;2023-05-10T06:04:20;40.42;;;20.80;;
21591;SDS011;10958;50.892;3.992;2023-05-10T06:06:45;40.67;;;21.38;;
21591;SDS011;10958;50.892;3.992;2023-05-10T06:09:11;36.20;;;19.67;;
21591;SDS011;10958;50.892;3.992;2023-05-10T06:11:40;39.05;;;19.55;;
21591;SDS011;10958;50.892;3.992;2023-05-10T06:14:06;32.88;;;18.05;;
21591;SDS011;10958;50.892;3.992;2023-05-10T06:16:36;38.55;;;18.55;;
21591;SDS011;10958;50.892;3.992;2023-05-10T06:19:02;39.30;;;17.30;;
21591;SDS011;10958;50.892;3.992;2023-05-10T06:21:28;35.67;;;16.85;;
21591;SDS011;10958;50.892;3.992;2023-05-10T06:23:53;32.67;;;17.50;;
21591;SDS011;10958;50.892;3.992;2023-05-10T06:26:19;33.30;;;16.00;;
21591;SDS011;10958;50.892;3.992;2023-05-10T06:28:45;35.80;;;17.17;;
21591;SDS011;10958;50.892;3.992;2023-05-10T06:31:11;33.05;;;15.40;;
21591;SDS011;10958;50.892;3.992;2023-05-10T06:33:39;39.50;;;16.38;;
21591;SDS011;10958;50.892;3.992;2023-05-10T06:36:05;28.55;;;15.85;;
21591;SDS011;10958;50.892;3.992;2023-05-10T06:38:31;32.25;;;17.38;;
21591;SDS011;10958;50.892;3.992;2023-05-10T06:40:57;33.97;;;16.00;;
21591;SDS011;10958;50.892;3.992;2023-05-10T06:43:23;36.97;;;17.00;;
21591;SDS011;10958;50.892;3.992;2023-05-10T06:45:49;35.53;;;17.27;;
21591;SDS011;10958;50.892;3.992;2023-05-10T06:48:15;36.35;;;16.88;;
21591;SDS011;10958;50.892;3.992;2023-05-10T06:50:41;34.88;;;16.95;;
21591;SDS011;10958;50.892;3.992;2023-05-10T06:53:07;36.83;;;16.38;;
21591;SDS011;10958;50.892;3.992;2023-05-10T06:55:35;40.65;;;17.27;;
21591;SDS011;10958;50.892;3.992;2023-05-10T06:58:01;36.70;;;18.02;;
21591;SDS011;10958;50.892;3.992;2023-05-10T07:00:29;35.17;;;17.70;;
21591;SDS011;10958;50.892;3.992;2023-05-10T07:03:00;36.08;;;17.05;;
21591;SDS011;10958;50.892;3.992;2023-05-10T07:05:25;36.72;;;17.30;;
21591;SDS011;10958;50.892;3.992;2023-05-10T07:07:52;42.22;;;17.45;;
21591;SDS011;10958;50.892;3.992;2023-05-10T07:10:23;34.40;;;17.02;;
21591;SDS011;10958;50.892;3.992;2023-05-10T07:12:49;28.98;;;16.40;;
21591;SDS011;10958;50.892;3.992;2023-05-10T07:15:15;32.45;;;16.30;;
21591;SDS011;10958;50.892;3.992;2023-05-10T07:17:40;33.05;;;15.93;;
21591;SDS011;10958;50.892;3.992;2023-05-10T07:20:07;34.45;;;16.67;;
21591;SDS011;10958;50.892;3.992;2023-05-10T07:22:35;36.08;;;17.15;;
21591;SDS011;10958;50.892;3.992;2023-05-10T07:25:04;34.17;;;16.20;;
21591;SDS011;10958;50.892;3.992;2023-05-10T07:27:30;27.52;;;15.18;;
21591;SDS011;10958;50.892;3.992;2023-05-10T07:29:56;32.50;;;15.70;;
21591;SDS011;10958;50.892;3.992;2023-05-10T07:32:22;35.92;;;16.40;;
21591;SDS011;10958;50.892;3.992;2023-05-10T07:34:48;33.03;;;16.00;;
21591;SDS011;10958;50.892;3.992;2023-05-10T07:37:15;32.35;;;15.05;;
21591;SDS011;10958;50.892;3.992;2023-05-10T07:39:41;30.13;;;14.77;;
21591;SDS011;10958;50.892;3.992;2023-05-10T07:42:07;29.58;;;14.52;;
21591;SDS011;10958;50.892;3.992;2023-05-10T07:44:33;30.38;;;13.90;;
21591;SDS011;10958;50.892;3.992;2023-05-10T07:46:58;24.83;;;13.10;;
21591;SDS011;10958;50.892;3.992;2023-05-10T07:49:25;22.98;;;12.18;;
21591;SDS011;10958;50.892;3.992;2023-05-10T07:51:51;30.88;;;13.00;;
21591;SDS011;10958;50.892;3.992;2023-05-10T07:54:16;28.15;;;12.15;;
21591;SDS011;10958;50.892;3.992;2023-05-10T07:56:43;24.98;;;11.88;;
21591;SDS011;10958;50.892;3.992;2023-05-10T08:04:06;31.70;;;12.88;;
21591;SDS011;10958;50.892;3.992;2023-05-10T08:06:32;24.80;;;11.80;;
21591;SDS011;10958;50.892;3.992;2023-05-10T08:08:58;24.63;;;11.55;;
21591;SDS011;10958;50.892;3.992;2023-05-10T08:11:23;25.02;;;12.30;;
21591;SDS011;10958;50.892;3.992;2023-05-10T08:13:50;23.88;;;10.43;;
21591;SDS011;10958;50.892;3.992;2023-05-10T08:16:18;24.73;;;10.73;;
21591;SDS011;10958;50.892;3.992;2023-05-10T08:18:44;21.80;;;10.07;;
21591;SDS011;10958;50.892;3.992;2023-05-10T08:21:11;22.85;;;11.65;;
21591;SDS011;10958;50.892;3.992;2023-05-10T08:23:40;23.42;;;10.90;;
21591;SDS011;10958;50.892;3.992;2023-05-10T08:26:06;26.38;;;11.10;;
21591;SDS011;10958;50.892;3.992;2023-05-10T08:28:32;23.13;;;10.15;;
21591;SDS011;10958;50.892;3.992;2023-05-10T08:30:58;25.67;;;11.23;;
21591;SDS011;10958;50.892;3.992;2023-05-10T08:33:24;23.95;;;10.18;;
21591;SDS011;10958;50.892;3.992;2023-05-10T08:35:52;24.80;;;11.00;;
21591;SDS011;10958;50.892;3.992;2023-05-10T08:38:20;26.10;;;11.30;;
21591;SDS011;10958;50.892;3.992;2023-05-10T08:40:46;21.95;;;10.88;;
21591;SDS011;10958;50.892;3.992;2023-05-10T08:43:21;22.33;;;11.45;;
21591;SDS011;10958;50.892;3.992;2023-05-10T08:45:52;24.75;;;11.93;;
21591;SDS011;10958;50.892;3.992;2023-05-10T08:48:20;25.13;;;11.35;;
21591;SDS011;10958;50.892;3.992;2023-05-10T08:50:48;25.00;;;10.82;;
21591;SDS011;10958;50.892;3.992;2023-05-10T08:53:19;20.60;;;11.93;;
21591;SDS011;10958;50.892;3.992;2023-05-10T08:55:46;23.55;;;10.88;;
21591;SDS011;10958;50.892;3.992;2023-05-10T08:58:12;18.00;;;10.52;;
21591;SDS011;10958;50.892;3.992;2023-05-10T09:00:39;24.23;;;12.07;;
21591;SDS011;10958;50.892;3.992;2023-05-10T09:03:05;23.30;;;10.98;;
21591;SDS011;10958;50.892;3.992;2023-05-10T09:05:33;19.33;;;11.25;;
21591;SDS011;10958;50.892;3.992;2023-05-10T09:08:01;22.92;;;11.63;;
21591;SDS011;10958;50.892;3.992;2023-05-10T09:10:29;16.50;;;10.82;;
21591;SDS011;10958;50.892;3.992;2023-05-10T09:12:56;18.25;;;10.45;;
21591;SDS011;10958;50.892;3.992;2023-05-10T09:15:23;20.38;;;10.38;;
21591;SDS011;10958;50.892;3.992;2023-05-10T09:17:49;17.10;;;10.55;;
21591;SDS011;10958;50.892;3.992;2023-05-10T09:20:17;19.33;;;9.85;;
21591;SDS011;10958;50.892;3.992;2023-05-10T09:22:46;16.83;;;10.40;;
21591;SDS011;10958;50.892;3.992;2023-05-10T09:25:14;19.73;;;11.35;;
21591;SDS011;10958;50.892;3.992;2023-05-10T09:27:41;18.65;;;10.38;;
21591;SDS011;10958;50.892;3.992;2023-05-10T09:30:14;17.77;;;10.63;;
21591;SDS011;10958;50.892;3.992;2023-05-10T09:32:43;18.75;;;11.30;;
21591;SDS011;10958;50.892;3.992;2023-05-10T09:35:12;18.38;;;11.93;;
21591;SDS011;10958;50.892;3.992;2023-05-10T09:37:45;16.67;;;10.93;;
21591;SDS011;10958;50.892;3.992;2023-05-10T09:40:14;20.23;;;10.68;;
21591;SDS011;10958;50.892;3.992;2023-05-10T09:42:42;19.13;;;11.13;;
21591;SDS011;10958;50.892;3.992;2023-05-10T09:45:15;16.63;;;10.40;;
21591;SDS011;10958;50.892;3.992;2023-05-10T09:47:44;15.77;;;9.88;;
21591;SDS011;10958;50.892;3.992;2023-05-10T09:50:13;16.85;;;10.98;;
21591;SDS011;10958;50.892;3.992;2023-05-10T09:52:58;16.05;;;9.98;;
21591;SDS011;10958;50.892;3.992;2023-05-10T09:55:38;16.35;;;10.25;;
21591;SDS011;10958;50.892;3.992;2023-05-10T09:58:07;16.17;;;10.93;;
21591;SDS011;10958;50.892;3.992;2023-05-10T10:03:05;19.05;;;10.55;;
21591;SDS011;10958;50.892;3.992;2023-05-10T10:05:32;20.02;;;10.68;;
21591;SDS011;10958;50.892;3.992;2023-05-10T10:07:59;14.45;;;10.10;;
21591;SDS011;10958;50.892;3.992;2023-05-10T10:10:27;13.20;;;10.00;;
21591;SDS011;10958;50.892;3.992;2023-05-10T10:12:54;14.25;;;9.32;;
21591;SDS011;10958;50.892;3.992;2023-05-10T10:15:20;16.25;;;10.10;;
21591;SDS011;10958;50.892;3.992;2023-05-10T10:17:48;17.48;;;11.70;;
21591;SDS011;10958;50.892;3.992;2023-05-10T10:20:14;21.02;;;13.18;;
21591;SDS011;10958;50.892;3.992;2023-05-10T10:22:40;14.98;;;11.13;;
21591;SDS011;10958;50.892;3.992;2023-05-10T10:25:08;15.15;;;10.55;;
21591;SDS011;10958;50.892;3.992;2023-05-10T10:35:28;14.85;;;10.18;;
21591;SDS011;10958;50.892;3.992;2023-05-10T10:37:56;14.65;;;11.15;;
21591;SDS011;10958;50.892;3.992;2023-05-10T10:40:22;16.02;;;11.15;;
21591;SDS011;10958;50.892;3.992;2023-05-10T10:42:55;14.30;;;10.52;;
21591;SDS011;10958;50.892;3.992;2023-05-10T10:45:22;19.95;;;10.82;;
21591;SDS011;10958;50.892;3.992;2023-05-10T10:47:48;17.90;;;10.57;;
21591;SDS011;10958;50.892;3.992;2023-05-10T10:50:18;17.33;;;10.45;;
21591;SDS011;10958;50.892;3.992;2023-05-10T10:52:46;15.10;;;9.77;;
21591;SDS011;10958;50.892;3.992;2023-05-10T10:55:15;13.77;;;10.25;;
21591;SDS011;10958;50.892;3.992;2023-05-10T10:57:47;19.50;;;10.07;;
21591;SDS011;10958;50.892;3.992;2023-05-10T11:08:28;16.15;;;9.65;;
21591;SDS011;10958;50.892;3.992;2023-05-10T11:13:31;18.73;;;10.48;;
21591;SDS011;10958;50.892;3.992;2023-05-10T11:18:52;13.85;;;9.57;;
21591;SDS011;10958;50.892;3.992;2023-05-10T11:21:23;15.82;;;10.25;;
21591;SDS011;10958;50.892;3.992;2023-05-10T11:23:50;20.10;;;11.77;;
21591;SDS011;10958;50.892;3.992;2023-05-10T11:26:21;14.18;;;9.88;;
21591;SDS011;10958;50.892;3.992;2023-05-10T11:28:51;17.17;;;10.70;;
21591;SDS011;10958;50.892;3.992;2023-05-10T11:31:22;19.55;;;10.60;;
21591;SDS011;10958;50.892;3.992;2023-05-10T11:33:55;16.48;;;10.00;;
21591;SDS011;10958;50.892;3.992;2023-05-10T11:36:23;16.45;;;10.48;;
21591;SDS011;10958;50.892;3.992;2023-05-10T11:38:53;14.38;;;11.00;;
21591;SDS011;10958;50.892;3.992;2023-05-10T11:41:20;17.45;;;10.55;;
21591;SDS011;10958;50.892;3.992;2023-05-10T11:43:52;18.65;;;10.65;;
21591;SDS011;10958;50.892;3.992;2023-05-10T11:46:20;15.75;;;10.50;;
21591;SDS011;10958;50.892;3.992;2023-05-10T11:48:50;14.60;;;10.07;;
21591;SDS011;10958;50.892;3.992;2023-05-10T11:51:29;15.55;;;10.68;;
21591;SDS011;10958;50.892;3.992;2023-05-10T11:56:26;16.70;;;10.50;;
21591;SDS011;10958;50.892;3.992;2023-05-10T11:58:55;15.40;;;10.55;;
21591;SDS011;10958;50.892;3.992;2023-05-10T12:01:22;17.55;;;11.23;;
21591;SDS011;10958;50.892;3.992;2023-05-10T12:03:52;21.90;;;11.88;;
21591;SDS011;10958;50.892;3.992;2023-05-10T12:08:35;18.75;;;11.75;;
21591;SDS011;10958;50.892;3.992;2023-05-10T12:11:05;15.95;;;10.65;;
21591;SDS011;10958;50.892;3.992;2023-05-10T12:13:32;16.85;;;11.98;;
21591;SDS011;10958;50.892;3.992;2023-05-10T12:16:21;18.88;;;11.68;;
21591;SDS011;10958;50.892;3.992;2023-05-10T12:18:49;16.00;;;11.18;;
21591;SDS011;10958;50.892;3.992;2023-05-10T12:21:22;17.88;;;11.85;;
21591;SDS011;10958;50.892;3.992;2023-05-10T12:23:49;15.82;;;11.90;;
21591;SDS011;10958;50.892;3.992;2023-05-10T12:26:16;17.58;;;12.25;;
21591;SDS011;10958;50.892;3.992;2023-05-10T12:28:42;15.77;;;12.02;;
21591;SDS011;10958;50.892;3.992;2023-05-10T12:31:08;20.02;;;13.15;;
21591;SDS011;10958;50.892;3.992;2023-05-10T12:33:35;18.58;;;12.95;;
21591;SDS011;10958;50.892;3.992;2023-05-10T12:36:07;18.70;;;13.68;;
21591;SDS011;10958;50.892;3.992;2023-05-10T12:38:41;20.67;;;11.98;;
21591;SDS011;10958;50.892;3.992;2023-05-10T12:41:09;21.53;;;14.47;;
21591;SDS011;10958;50.892;3.992;2023-05-10T12:43:36;16.83;;;12.75;;
21591;SDS011;10958;50.892;3.992;2023-05-10T12:46:06;21.63;;;12.70;;
21591;SDS011;10958;50.892;3.992;2023-05-10T12:48:33;19.02;;;13.40;;
21591;SDS011;10958;50.892;3.992;2023-05-10T12:51:00;16.50;;;13.25;;
21591;SDS011;10958;50.892;3.992;2023-05-10T12:53:28;18.40;;;13.25;;
21591;SDS011;10958;50.892;3.992;2023-05-10T12:55:54;17.55;;;13.30;;
21591;SDS011;10958;50.892;3.992;2023-05-10T12:58:21;20.02;;;12.65;;
21591;SDS011;10958;50.892;3.992;2023-05-10T13:00:47;17.33;;;13.05;;
21591;SDS011;10958;50.892;3.992;2023-05-10T13:03:13;15.13;;;13.27;;
21591;SDS011;10958;50.892;3.992;2023-05-10T13:05:40;18.45;;;13.52;;
21591;SDS011;10958;50.892;3.992;2023-05-10T13:08:09;16.95;;;12.77;;
21591;SDS011;10958;50.892;3.992;2023-05-10T13:10:37;18.30;;;12.93;;
21591;SDS011;10958;50.892;3.992;2023-05-10T13:13:05;21.93;;;13.30;;
21591;SDS011;10958;50.892;3.992;2023-05-10T13:15:32;17.92;;;13.27;;
21591;SDS011;10958;50.892;3.992;2023-05-10T13:17:58;20.38;;;13.75;;
21591;SDS011;10958;50.892;3.992;2023-05-10T13:20:25;24.25;;;15.00;;
21591;SDS011;10958;50.892;3.992;2023-05-10T13:22:51;19.40;;;13.88;;
21591;SDS011;10958;50.892;3.992;2023-05-10T13:25:20;21.17;;;14.73;;
21591;SDS011;10958;50.892;3.992;2023-05-10T13:27:46;19.73;;;13.30;;
21591;SDS011;10958;50.892;3.992;2023-05-10T13:30:17;19.30;;;13.40;;
21591;SDS011;10958;50.892;3.992;2023-05-10T13:32:42;21.13;;;13.47;;
21591;SDS011;10958;50.892;3.992;2023-05-10T13:35:08;17.40;;;12.25;;
21591;SDS011;10958;50.892;3.992;2023-05-10T13:37:34;17.17;;;12.48;;
21591;SDS011;10958;50.892;3.992;2023-05-10T13:40:02;17.35;;;12.45;;
21591;SDS011;10958;50.892;3.992;2023-05-10T13:42:34;16.92;;;12.60;;
21591;SDS011;10958;50.892;3.992;2023-05-10T13:45:00;16.98;;;11.80;;
21591;SDS011;10958;50.892;3.992;2023-05-10T13:47:26;13.48;;;10.45;;
21591;SDS011;10958;50.892;3.992;2023-05-10T13:49:52;13.70;;;10.68;;
21591;SDS011;10958;50.892;3.992;2023-05-10T13:52:18;15.13;;;10.77;;
21591;SDS011;10958;50.892;3.992;2023-05-10T13:54:44;17.70;;;11.10;;
21591;SDS011;10958;50.892;3.992;2023-05-10T13:57:09;17.90;;;11.52;;
21591;SDS011;10958;50.892;3.992;2023-05-10T13:59:37;15.20;;;10.20;;
21591;SDS011;10958;50.892;3.992;2023-05-10T14:02:03;16.92;;;11.73;;
21591;SDS011;10958;50.892;3.992;2023-05-10T14:04:29;20.70;;;11.60;;
21591;SDS011;10958;50.892;3.992;2023-05-10T14:06:55;17.27;;;11.65;;
21591;SDS011;10958;50.892;3.992;2023-05-10T14:09:21;20.05;;;11.95;;
21591;SDS011;10958;50.892;3.992;2023-05-10T14:11:48;17.73;;;9.25;;
21591;SDS011;10958;50.892;3.992;2023-05-10T14:14:13;15.13;;;8.35;;
21591;SDS011;10958;50.892;3.992;2023-05-10T14:16:44;12.73;;;7.80;;
21591;SDS011;10958;50.892;3.992;2023-05-10T14:19:11;16.42;;;6.93;;
21591;SDS011;10958;50.892;3.992;2023-05-10T14:21:37;11.05;;;5.35;;
21591;SDS011;10958;50.892;3.992;2023-05-10T14:24:03;11.73;;;5.43;;
21591;SDS011;10958;50.892;3.992;2023-05-10T14:28:59;15.45;;;6.07;;
21591;SDS011;10958;50.892;3.992;2023-05-10T14:31:25;10.38;;;6.32;;
21591;SDS011;10958;50.892;3.992;2023-05-10T14:33:50;8.55;;;4.95;;
21591;SDS011;10958;50.892;3.992;2023-05-10T14:36:16;7.47;;;4.32;;
21591;SDS011;10958;50.892;3.992;2023-05-10T14:38:43;11.02;;;4.25;;
21591;SDS011;10958;50.892;3.992;2023-05-10T14:41:08;12.85;;;5.50;;
21591;SDS011;10958;50.892;3.992;2023-05-10T14:43:38;10.00;;;4.97;;
21591;SDS011;10958;50.892;3.992;2023-05-10T14:46:04;9.80;;;5.18;;
21591;SDS011;10958;50.892;3.992;2023-05-10T14:48:30;13.18;;;6.45;;
21591;SDS011;10958;50.892;3.992;2023-05-10T14:50:56;13.90;;;5.82;;
21591;SDS011;10958;50.892;3.992;2023-05-10T14:53:24;10.45;;;6.80;;
21591;SDS011;10958;50.892;3.992;2023-05-10T14:55:49;15.07;;;7.72;;
21591;SDS011;10958;50.892;3.992;2023-05-10T14:58:15;13.45;;;7.80;;
21591;SDS011;10958;50.892;3.992;2023-05-10T15:00:41;13.23;;;8.75;;
21591;SDS011;10958;50.892;3.992;2023-05-10T15:03:08;19.67;;;9.25;;
21591;SDS011;10958;50.892;3.992;2023-05-10T15:05:36;15.57;;;9.65;;
21591;SDS011;10958;50.892;3.992;2023-05-10T15:08:02;17.73;;;8.20;;
21591;SDS011;10958;50.892;3.992;2023-05-10T15:10:31;19.83;;;9.60;;
21591;SDS011;10958;50.892;3.992;2023-05-10T15:12:57;15.02;;;8.98;;
21591;SDS011;10958;50.892;3.992;2023-05-10T15:15:24;16.98;;;9.25;;
21591;SDS011;10958;50.892;3.992;2023-05-10T15:17:49;15.02;;;8.93;;
21591;SDS011;10958;50.892;3.992;2023-05-10T15:20:15;17.73;;;9.30;;
21591;SDS011;10958;50.892;3.992;2023-05-10T15:22:41;14.93;;;9.68;;
21591;SDS011;10958;50.892;3.992;2023-05-10T15:25:07;13.75;;;9.35;;
21591;SDS011;10958;50.892;3.992;2023-05-10T15:27:33;15.95;;;8.90;;
21591;SDS011;10958;50.892;3.992;2023-05-10T15:30:01;17.45;;;11.10;;
21591;SDS011;10958;50.892;3.992;2023-05-10T15:32:27;15.35;;;9.68;;
21591;SDS011;10958;50.892;3.992;2023-05-10T15:34:54;15.88;;;9.35;;
21591;SDS011;10958;50.892;3.992;2023-05-10T15:37:20;17.05;;;9.23;;
21591;SDS011;10958;50.892;3.992;2023-05-10T15:39:46;16.05;;;8.95;;
21591;SDS011;10958;50.892;3.992;2023-05-10T15:42:12;14.95;;;8.98;;
21591;SDS011;10958;50.892;3.992;2023-05-10T15:44:37;15.23;;;8.38;;
21591;SDS011;10958;50.892;3.992;2023-05-10T15:49:34;14.67;;;7.57;;